sensor_id;sensor_type;location;lat;lon;timestamp;temperature;humidity
67890;DHT22;54685;52.082;5.426;2023-02-14T00:01:09;3.90;99.90
67890;DHT22;54685;52.082;5.426;2023-02-14T00:03:36;3.90;99.90
67890;DHT22;54685;52.082;5.426;2023-02-14T00:06:05;3.90;99.90
67890;DHT22;54685;52.082;5.426;2023-02-14T00:08:32;3.80;99.90
67890;DHT22;54685;52.082;5.426;2023-02-14T00:10:59;3.70;99.90
67890;DHT22;54685;52.082;5.426;2023-02-14T00:13:26;3.70;99.90
67890;DHT22;54685;52.082;5.426;2023-02-14T00:15:54;3.70;99.90
67890;DHT22;54685;52.082;5.426;2023-02-14T00:18:21;3.70;99.90
67890;DHT22;54685;52.082;5.426;2023-02-14T00:20:47;3.60;99.90
67890;DHT22;54685;52.082;5.426;2023-02-14T00:23:14;3.60;99.90
67890;DHT22;54685;52.082;5.426;2023-02-14T00:25:41;3.60;99.90
67890;DHT22;54685;52.082;5.426;2023-02-14T00:28:07;3.60;99.90
67890;DHT22;54685;52.082;5.426;2023-02-14T00:30:34;3.50;99.90
67890;DHT22;54685;52.082;5.426;2023-02-14T00:33:03;3.50;99.90
67890;DHT22;54685;52.082;5.426;2023-02-14T00:35:30;3.40;99.90
67890;DHT22;54685;52.082;5.426;2023-02-14T00:37:57;3.40;99.90
67890;DHT22;54685;52.082;5.426;2023-02-14T00:40:23;3.40;99.90
67890;DHT22;54685;52.082;5.426;2023-02-14T00:42:50;3.30;99.90
67890;DHT22;54685;52.082;5.426;2023-02-14T00:45:17;3.30;99.90
67890;DHT22;54685;52.082;5.426;2023-02-14T00:47:45;3.30;99.90
67890;DHT22;54685;52.082;5.426;2023-02-14T00:50:15;3.20;99.90
67890;DHT22;54685;52.082;5.426;2023-02-14T00:52:46;3.10;99.90
67890;DHT22;54685;52.082;5.426;2023-02-14T00:55:12;3.10;99.90
67890;DHT22;54685;52.082;5.426;2023-02-14T00:57:39;3.10;99.90
67890;DHT22;54685;52.082;5.426;2023-02-14T01:00:06;3.00;99.90
67890;DHT22;54685;52.082;5.426;2023-02-14T01:02:33;3.00;99.90
67890;DHT22;54685;52.082;5.426;2023-02-14T01:05:00;3.00;99.90
67890;DHT22;54685;52.082;5.426;2023-02-14T01:07:26;3.00;99.90
67890;DHT22;54685;52.082;5.426;2023-02-14T01:09:53;3.00;99.90
67890;DHT22;54685;52.082;5.426;2023-02-14T01:12:20;3.00;99.90
67890;DHT22;54685;52.082;5.426;2023-02-14T01:14:47;3.10;99.90
67890;DHT22;54685;52.082;5.426;2023-02-14T01:17:17;3.20;99.90
67890;DHT22;54685;52.082;5.426;2023-02-14T01:19:46;3.30;99.90
67890;DHT22;54685;52.082;5.426;2023-02-14T01:22:15;3.30;99.90
67890;DHT22;54685;52.082;5.426;2023-02-14T01:24:42;3.30;99.90
67890;DHT22;54685;52.082;5.426;2023-02-14T01:27:09;3.30;99.90
67890;DHT22;54685;52.082;5.426;2023-02-14T01:29:36;3.30;99.90
67890;DHT22;54685;52.082;5.426;2023-02-14T01:32:03;3.30;99.90
67890;DHT22;54685;52.082;5.426;2023-02-14T01:34:30;3.30;99.90
67890;DHT22;54685;52.082;5.426;2023-02-14T01:36:56;3.20;99.90
67890;DHT22;54685;52.082;5.426;2023-02-14T01:39:23;3.20;99.90
67890;DHT22;54685;52.082;5.426;2023-02-14T01:41:50;3.10;99.90
67890;DHT22;54685;52.082;5.426;2023-02-14T01:47:02;2.90;99.90
67890;DHT22;54685;52.082;5.426;2023-02-14T01:49:43;2.90;99.90
67890;DHT22;54685;52.082;5.426;2023-02-14T01:52:27;2.90;99.90
67890;DHT22;54685;52.082;5.426;2023-02-14T01:54:59;2.80;99.90
67890;DHT22;54685;52.082;5.426;2023-02-14T01:57:34;2.70;99.90
67890;DHT22;54685;52.082;5.426;2023-02-14T02:00:04;2.70;99.90
67890;DHT22;54685;52.082;5.426;2023-02-14T02:02:50;2.50;99.90
67890;DHT22;54685;52.082;5.426;2023-02-14T02:05:17;2.50;99.90
67890;DHT22;54685;52.082;5.426;2023-02-14T02:07:54;2.50;99.90
67890;DHT22;54685;52.082;5.426;2023-02-14T02:10:22;2.60;99.90
67890;DHT22;54685;52.082;5.426;2023-02-14T02:12:50;2.60;99.90
67890;DHT22;54685;52.082;5.426;2023-02-14T02:15:20;2.50;99.90
67890;DHT22;54685;52.082;5.426;2023-02-14T02:18:01;2.50;99.90
67890;DHT22;54685;52.082;5.426;2023-02-14T02:21:14;2.60;99.90
67890;DHT22;54685;52.082;5.426;2023-02-14T02:29:31;2.60;99.90
67890;DHT22;54685;52.082;5.426;2023-02-14T02:38:19;2.40;99.90
67890;DHT22;54685;52.082;5.426;2023-02-14T02:44:01;2.30;99.90
67890;DHT22;54685;52.082;5.426;2023-02-14T02:46:30;2.30;99.90
67890;DHT22;54685;52.082;5.426;2023-02-14T02:55:40;2.20;99.90
67890;DHT22;54685;52.082;5.426;2023-02-14T02:58:34;2.00;99.90
67890;DHT22;54685;52.082;5.426;2023-02-14T03:01:10;1.80;99.90
67890;DHT22;54685;52.082;5.426;2023-02-14T03:03:40;1.80;99.90
67890;DHT22;54685;52.082;5.426;2023-02-14T03:06:29;1.70;99.90
67890;DHT22;54685;52.082;5.426;2023-02-14T03:08:56;1.60;99.90
67890;DHT22;54685;52.082;5.426;2023-02-14T03:11:24;1.60;99.90
67890;DHT22;54685;52.082;5.426;2023-02-14T03:14:25;1.60;99.90
67890;DHT22;54685;52.082;5.426;2023-02-14T03:17:07;1.70;99.90
67890;DHT22;54685;52.082;5.426;2023-02-14T03:22:50;1.80;99.90
67890;DHT22;54685;52.082;5.426;2023-02-14T03:25:35;1.90;99.90
67890;DHT22;54685;52.082;5.426;2023-02-14T03:28:16;1.90;99.90
67890;DHT22;54685;52.082;5.426;2023-02-14T03:33:25;1.90;99.90
67890;DHT22;54685;52.082;5.426;2023-02-14T03:39:43;2.00;99.90
67890;DHT22;54685;52.082;5.426;2023-02-14T03:41:56;2.00;99.90
67890;DHT22;54685;52.082;5.426;2023-02-14T03:44:27;1.90;99.90
67890;DHT22;54685;52.082;5.426;2023-02-14T03:47:01;1.80;99.90
67890;DHT22;54685;52.082;5.426;2023-02-14T03:49:37;1.70;99.90
67890;DHT22;54685;52.082;5.426;2023-02-14T03:52:08;1.60;99.90
67890;DHT22;54685;52.082;5.426;2023-02-14T03:54:36;1.60;99.90
67890;DHT22;54685;52.082;5.426;2023-02-14T03:57:19;1.60;99.90
67890;DHT22;54685;52.082;5.426;2023-02-14T03:59:49;1.60;99.90
67890;DHT22;54685;52.082;5.426;2023-02-14T04:02:37;1.60;99.90
67890;DHT22;54685;52.082;5.426;2023-02-14T04:05:11;1.70;99.90
67890;DHT22;54685;52.082;5.426;2023-02-14T04:07:44;1.70;99.90
67890;DHT22;54685;52.082;5.426;2023-02-14T04:10:11;1.80;99.90
67890;DHT22;54685;52.082;5.426;2023-02-14T04:12:38;1.90;99.90
67890;DHT22;54685;52.082;5.426;2023-02-14T04:15:05;2.00;99.90
67890;DHT22;54685;52.082;5.426;2023-02-14T04:17:32;2.00;99.90
67890;DHT22;54685;52.082;5.426;2023-02-14T04:20:17;2.00;99.90
67890;DHT22;54685;52.082;5.426;2023-02-14T04:22:44;1.90;99.90
67890;DHT22;54685;52.082;5.426;2023-02-14T04:25:12;1.90;99.90
67890;DHT22;54685;52.082;5.426;2023-02-14T04:27:39;1.90;99.90
67890;DHT22;54685;52.082;5.426;2023-02-14T04:30:07;1.90;99.90
67890;DHT22;54685;52.082;5.426;2023-02-14T04:32:34;1.90;99.90
67890;DHT22;54685;52.082;5.426;2023-02-14T04:35:01;1.90;99.90
67890;DHT22;54685;52.082;5.426;2023-02-14T04:37:27;1.90;99.90
67890;DHT22;54685;52.082;5.426;2023-02-14T04:39:54;1.90;99.90
67890;DHT22;54685;52.082;5.426;2023-02-14T04:42:21;1.80;99.90
67890;DHT22;54685;52.082;5.426;2023-02-14T04:44:48;1.80;99.90
67890;DHT22;54685;52.082;5.426;2023-02-14T04:47:14;1.90;99.90
67890;DHT22;54685;52.082;5.426;2023-02-14T04:49:41;1.90;99.90
67890;DHT22;54685;52.082;5.426;2023-02-14T04:52:11;1.80;99.90
67890;DHT22;54685;52.082;5.426;2023-02-14T04:54:38;1.90;99.90
67890;DHT22;54685;52.082;5.426;2023-02-14T04:57:05;1.90;99.90
67890;DHT22;54685;52.082;5.426;2023-02-14T04:59:32;1.80;99.90
67890;DHT22;54685;52.082;5.426;2023-02-14T05:01:58;1.80;99.90
67890;DHT22;54685;52.082;5.426;2023-02-14T05:04:25;1.80;99.90
67890;DHT22;54685;52.082;5.426;2023-02-14T05:06:52;1.80;99.90
67890;DHT22;54685;52.082;5.426;2023-02-14T05:09:19;1.80;99.90
67890;DHT22;54685;52.082;5.426;2023-02-14T05:11:45;1.80;99.90
67890;DHT22;54685;52.082;5.426;2023-02-14T05:14:12;1.80;99.90
67890;DHT22;54685;52.082;5.426;2023-02-14T05:16:39;1.80;99.90
67890;DHT22;54685;52.082;5.426;2023-02-14T05:19:06;1.80;99.90
67890;DHT22;54685;52.082;5.426;2023-02-14T05:21:33;1.70;99.90
67890;DHT22;54685;52.082;5.426;2023-02-14T05:23:59;1.70;99.90
67890;DHT22;54685;52.082;5.426;2023-02-14T05:26:27;1.70;99.90
67890;DHT22;54685;52.082;5.426;2023-02-14T05:28:54;1.70;99.90
67890;DHT22;54685;52.082;5.426;2023-02-14T05:31:21;1.70;99.90
67890;DHT22;54685;52.082;5.426;2023-02-14T05:33:48;1.60;99.90
67890;DHT22;54685;52.082;5.426;2023-02-14T05:36:15;1.60;99.90
67890;DHT22;54685;52.082;5.426;2023-02-14T05:38:42;1.60;99.90
67890;DHT22;54685;52.082;5.426;2023-02-14T05:41:08;1.50;99.90
67890;DHT22;54685;52.082;5.426;2023-02-14T05:43:35;1.50;99.90
67890;DHT22;54685;52.082;5.426;2023-02-14T05:46:03;1.50;99.90
67890;DHT22;54685;52.082;5.426;2023-02-14T05:48:30;1.40;99.90
67890;DHT22;54685;52.082;5.426;2023-02-14T05:50:56;1.40;99.90
67890;DHT22;54685;52.082;5.426;2023-02-14T05:53:24;1.40;99.90
67890;DHT22;54685;52.082;5.426;2023-02-14T05:55:50;1.50;99.90
67890;DHT22;54685;52.082;5.426;2023-02-14T05:58:19;1.50;99.90
67890;DHT22;54685;52.082;5.426;2023-02-14T06:00:47;1.60;99.90
67890;DHT22;54685;52.082;5.426;2023-02-14T06:03:14;1.50;99.90
67890;DHT22;54685;52.082;5.426;2023-02-14T06:05:41;1.50;99.90
67890;DHT22;54685;52.082;5.426;2023-02-14T06:08:08;1.50;99.90
67890;DHT22;54685;52.082;5.426;2023-02-14T06:10:34;1.60;99.90
67890;DHT22;54685;52.082;5.426;2023-02-14T06:13:01;1.60;99.90
67890;DHT22;54685;52.082;5.426;2023-02-14T06:15:28;1.60;99.90
67890;DHT22;54685;52.082;5.426;2023-02-14T06:17:56;1.50;99.90
67890;DHT22;54685;52.082;5.426;2023-02-14T06:20:23;1.50;99.90
67890;DHT22;54685;52.082;5.426;2023-02-14T06:22:52;1.50;99.90
67890;DHT22;54685;52.082;5.426;2023-02-14T06:25:20;1.50;99.90
67890;DHT22;54685;52.082;5.426;2023-02-14T06:27:47;1.50;99.90
67890;DHT22;54685;52.082;5.426;2023-02-14T06:30:16;1.50;99.90
67890;DHT22;54685;52.082;5.426;2023-02-14T06:32:43;1.40;99.90
67890;DHT22;54685;52.082;5.426;2023-02-14T06:35:11;1.40;99.90
67890;DHT22;54685;52.082;5.426;2023-02-14T06:37:39;1.30;99.90
67890;DHT22;54685;52.082;5.426;2023-02-14T06:40:09;1.30;99.90
67890;DHT22;54685;52.082;5.426;2023-02-14T06:42:35;1.20;99.90
67890;DHT22;54685;52.082;5.426;2023-02-14T06:45:03;1.20;99.90
67890;DHT22;54685;52.082;5.426;2023-02-14T06:47:30;1.20;99.90
67890;DHT22;54685;52.082;5.426;2023-02-14T06:50:00;1.20;99.90
67890;DHT22;54685;52.082;5.426;2023-02-14T06:52:27;1.20;99.90
67890;DHT22;54685;52.082;5.426;2023-02-14T06:54:54;1.20;99.90
67890;DHT22;54685;52.082;5.426;2023-02-14T06:57:21;1.20;99.90
67890;DHT22;54685;52.082;5.426;2023-02-14T06:59:47;1.20;99.90
67890;DHT22;54685;52.082;5.426;2023-02-14T07:02:14;1.20;99.90
67890;DHT22;54685;52.082;5.426;2023-02-14T07:04:44;1.20;99.90
67890;DHT22;54685;52.082;5.426;2023-02-14T07:07:10;1.20;99.90
67890;DHT22;54685;52.082;5.426;2023-02-14T07:09:38;1.20;99.90
67890;DHT22;54685;52.082;5.426;2023-02-14T07:12:05;1.20;99.90
67890;DHT22;54685;52.082;5.426;2023-02-14T07:14:32;1.20;99.90
67890;DHT22;54685;52.082;5.426;2023-02-14T07:16:59;1.10;99.90
67890;DHT22;54685;52.082;5.426;2023-02-14T07:19:26;1.10;99.90
67890;DHT22;54685;52.082;5.426;2023-02-14T07:21:53;1.20;99.90
67890;DHT22;54685;52.082;5.426;2023-02-14T07:24:19;1.20;99.90
67890;DHT22;54685;52.082;5.426;2023-02-14T07:26:46;1.30;99.90
67890;DHT22;54685;52.082;5.426;2023-02-14T07:29:13;1.30;99.90
67890;DHT22;54685;52.082;5.426;2023-02-14T07:31:40;1.40;99.90
67890;DHT22;54685;52.082;5.426;2023-02-14T07:34:07;1.50;99.90
67890;DHT22;54685;52.082;5.426;2023-02-14T07:36:36;1.50;99.90
67890;DHT22;54685;52.082;5.426;2023-02-14T07:39:03;1.50;99.90
67890;DHT22;54685;52.082;5.426;2023-02-14T07:41:30;1.50;99.90
67890;DHT22;54685;52.082;5.426;2023-02-14T07:43:57;1.50;99.90
67890;DHT22;54685;52.082;5.426;2023-02-14T07:46:24;1.60;99.90
67890;DHT22;54685;52.082;5.426;2023-02-14T07:48:51;1.60;99.90
67890;DHT22;54685;52.082;5.426;2023-02-14T07:51:18;1.70;99.90
67890;DHT22;54685;52.082;5.426;2023-02-14T07:53:44;1.70;99.90
67890;DHT22;54685;52.082;5.426;2023-02-14T07:56:11;1.70;99.90
67890;DHT22;54685;52.082;5.426;2023-02-14T07:58:38;1.70;99.90
67890;DHT22;54685;52.082;5.426;2023-02-14T08:01:05;1.70;99.90
67890;DHT22;54685;52.082;5.426;2023-02-14T08:03:31;1.70;99.90
67890;DHT22;54685;52.082;5.426;2023-02-14T08:05:59;1.70;99.90
67890;DHT22;54685;52.082;5.426;2023-02-14T08:08:30;1.80;99.90
67890;DHT22;54685;52.082;5.426;2023-02-14T08:10:57;1.80;99.90
67890;DHT22;54685;52.082;5.426;2023-02-14T08:13:28;1.80;99.90
67890;DHT22;54685;52.082;5.426;2023-02-14T08:15:55;1.90;99.90
67890;DHT22;54685;52.082;5.426;2023-02-14T08:18:40;1.90;99.90
67890;DHT22;54685;52.082;5.426;2023-02-14T08:21:09;1.90;99.90
67890;DHT22;54685;52.082;5.426;2023-02-14T08:23:37;2.00;99.90
67890;DHT22;54685;52.082;5.426;2023-02-14T08:26:03;2.10;99.90
67890;DHT22;54685;52.082;5.426;2023-02-14T08:28:30;2.10;99.90
67890;DHT22;54685;52.082;5.426;2023-02-14T08:30:59;2.10;99.90
67890;DHT22;54685;52.082;5.426;2023-02-14T08:33:27;2.20;99.90
67890;DHT22;54685;52.082;5.426;2023-02-14T08:35:53;2.30;99.90
67890;DHT22;54685;52.082;5.426;2023-02-14T08:38:20;2.30;99.90
67890;DHT22;54685;52.082;5.426;2023-02-14T08:40:47;2.40;99.90
67890;DHT22;54685;52.082;5.426;2023-02-14T08:43:14;2.40;99.90
67890;DHT22;54685;52.082;5.426;2023-02-14T08:45:41;2.60;99.90
67890;DHT22;54685;52.082;5.426;2023-02-14T08:48:11;2.70;99.90
67890;DHT22;54685;52.082;5.426;2023-02-14T08:50:38;2.80;99.90
67890;DHT22;54685;52.082;5.426;2023-02-14T08:53:07;2.80;99.90
67890;DHT22;54685;52.082;5.426;2023-02-14T08:55:38;2.90;99.90
67890;DHT22;54685;52.082;5.426;2023-02-14T08:58:06;3.00;99.90
67890;DHT22;54685;52.082;5.426;2023-02-14T09:00:33;3.10;99.90
67890;DHT22;54685;52.082;5.426;2023-02-14T09:03:00;3.20;99.90
67890;DHT22;54685;52.082;5.426;2023-02-14T09:05:27;3.30;99.90
67890;DHT22;54685;52.082;5.426;2023-02-14T09:07:54;3.40;99.90
67890;DHT22;54685;52.082;5.426;2023-02-14T09:10:23;3.50;99.90
67890;DHT22;54685;52.082;5.426;2023-02-14T09:12:50;3.60;99.90
67890;DHT22;54685;52.082;5.426;2023-02-14T09:15:17;3.70;99.90
67890;DHT22;54685;52.082;5.426;2023-02-14T09:17:45;3.70;99.90
67890;DHT22;54685;52.082;5.426;2023-02-14T09:20:13;3.90;99.90
67890;DHT22;54685;52.082;5.426;2023-02-14T09:22:40;4.00;99.90
67890;DHT22;54685;52.082;5.426;2023-02-14T09:25:07;4.10;99.90
67890;DHT22;54685;52.082;5.426;2023-02-14T09:27:34;4.10;99.90
67890;DHT22;54685;52.082;5.426;2023-02-14T09:30:01;4.30;99.90
67890;DHT22;54685;52.082;5.426;2023-02-14T09:32:28;4.40;99.90
67890;DHT22;54685;52.082;5.426;2023-02-14T09:34:55;4.50;99.90
67890;DHT22;54685;52.082;5.426;2023-02-14T09:37:22;4.60;99.90
67890;DHT22;54685;52.082;5.426;2023-02-14T09:40:10;4.70;99.90
67890;DHT22;54685;52.082;5.426;2023-02-14T09:45:29;5.00;99.90
67890;DHT22;54685;52.082;5.426;2023-02-14T09:50:59;5.20;99.90
67890;DHT22;54685;52.082;5.426;2023-02-14T09:53:34;5.30;99.90
67890;DHT22;54685;52.082;5.426;2023-02-14T10:12:15;6.00;99.90
67890;DHT22;54685;52.082;5.426;2023-02-14T10:14:44;6.10;99.90
67890;DHT22;54685;52.082;5.426;2023-02-14T10:17:22;6.20;99.90
67890;DHT22;54685;52.082;5.426;2023-02-14T10:19:55;6.30;99.90
67890;DHT22;54685;52.082;5.426;2023-02-14T10:22:37;6.40;99.90
67890;DHT22;54685;52.082;5.426;2023-02-14T10:25:23;6.50;99.90
67890;DHT22;54685;52.082;5.426;2023-02-14T10:27:54;6.60;99.90
67890;DHT22;54685;52.082;5.426;2023-02-14T10:30:22;6.80;99.90
67890;DHT22;54685;52.082;5.426;2023-02-14T10:33:02;7.40;99.90
67890;DHT22;54685;52.082;5.426;2023-02-14T10:41:38;10.50;99.90
67890;DHT22;54685;52.082;5.426;2023-02-14T10:56:18;13.80;99.90
67890;DHT22;54685;52.082;5.426;2023-02-14T10:58:47;14.30;99.90
67890;DHT22;54685;52.082;5.426;2023-02-14T11:01:17;14.60;99.90
67890;DHT22;54685;52.082;5.426;2023-02-14T11:03:56;14.90;99.90
67890;DHT22;54685;52.082;5.426;2023-02-14T11:06:29;15.10;99.90
67890;DHT22;54685;52.082;5.426;2023-02-14T11:08:56;15.40;99.90
67890;DHT22;54685;52.082;5.426;2023-02-14T11:11:30;15.60;99.90
67890;DHT22;54685;52.082;5.426;2023-02-14T11:13:59;15.80;95.60
67890;DHT22;54685;52.082;5.426;2023-02-14T11:16:43;16.20;98.90
67890;DHT22;54685;52.082;5.426;2023-02-14T11:21:42;16.40;87.20
67890;DHT22;54685;52.082;5.426;2023-02-14T11:24:32;16.60;89.00
67890;DHT22;54685;52.082;5.426;2023-02-14T11:27:18;16.80;77.30
67890;DHT22;54685;52.082;5.426;2023-02-14T11:29:48;17.10;72.50
67890;DHT22;54685;52.082;5.426;2023-02-14T11:32:26;17.30;77.00
67890;DHT22;54685;52.082;5.426;2023-02-14T11:35:06;17.50;73.00
67890;DHT22;54685;52.082;5.426;2023-02-14T11:37:48;17.80;66.90
67890;DHT22;54685;52.082;5.426;2023-02-14T11:40:37;18.20;70.80
67890;DHT22;54685;52.082;5.426;2023-02-14T11:45:45;18.40;64.60
67890;DHT22;54685;52.082;5.426;2023-02-14T11:48:21;18.60;63.50
67890;DHT22;54685;52.082;5.426;2023-02-14T11:51:08;18.60;61.30
67890;DHT22;54685;52.082;5.426;2023-02-14T11:53:45;18.70;61.30
67890;DHT22;54685;52.082;5.426;2023-02-14T11:56:14;18.70;60.20
67890;DHT22;54685;52.082;5.426;2023-02-14T11:58:57;18.90;60.90
67890;DHT22;54685;52.082;5.426;2023-02-14T12:01:26;19.10;59.50
67890;DHT22;54685;52.082;5.426;2023-02-14T12:03:59;19.10;60.50
67890;DHT22;54685;52.082;5.426;2023-02-14T12:06:31;19.20;59.70
67890;DHT22;54685;52.082;5.426;2023-02-14T12:11:59;19.60;56.10
67890;DHT22;54685;52.082;5.426;2023-02-14T12:14:32;19.80;56.40
67890;DHT22;54685;52.082;5.426;2023-02-14T12:20:10;20.00;53.60
67890;DHT22;54685;52.082;5.426;2023-02-14T12:22:45;20.20;54.70
67890;DHT22;54685;52.082;5.426;2023-02-14T12:25:18;20.30;54.90
67890;DHT22;54685;52.082;5.426;2023-02-14T12:27:51;20.40;53.00
67890;DHT22;54685;52.082;5.426;2023-02-14T12:30:22;20.60;54.60
67890;DHT22;54685;52.082;5.426;2023-02-14T12:32:54;20.70;53.70
67890;DHT22;54685;52.082;5.426;2023-02-14T12:44:32;21.30;50.00
67890;DHT22;54685;52.082;5.426;2023-02-14T12:55:35;21.40;51.70
67890;DHT22;54685;52.082;5.426;2023-02-14T13:06:55;21.60;51.70
67890;DHT22;54685;52.082;5.426;2023-02-14T13:09:46;21.60;50.10
67890;DHT22;54685;52.082;5.426;2023-02-14T13:12:31;21.70;48.50
67890;DHT22;54685;52.082;5.426;2023-02-14T13:20:50;21.90;50.10
67890;DHT22;54685;52.082;5.426;2023-02-14T13:23:28;22.00;48.60
67890;DHT22;54685;52.082;5.426;2023-02-14T13:26:04;22.20;50.00
67890;DHT22;54685;52.082;5.426;2023-02-14T13:28:33;22.00;47.70
67890;DHT22;54685;52.082;5.426;2023-02-14T13:31:01;21.90;49.00
67890;DHT22;54685;52.082;5.426;2023-02-14T13:33:36;22.00;48.80
67890;DHT22;54685;52.082;5.426;2023-02-14T13:36:08;21.80;49.20
67890;DHT22;54685;52.082;5.426;2023-02-14T13:38:43;21.80;49.00
67890;DHT22;54685;52.082;5.426;2023-02-14T13:41:11;21.30;47.90
67890;DHT22;54685;52.082;5.426;2023-02-14T13:43:58;21.20;48.40
67890;DHT22;54685;52.082;5.426;2023-02-14T13:56:56;18.00;53.40
67890;DHT22;54685;52.082;5.426;2023-02-14T13:59:27;17.60;55.50
67890;DHT22;54685;52.082;5.426;2023-02-14T14:01:55;17.20;56.50
67890;DHT22;54685;52.082;5.426;2023-02-14T14:04:41;17.10;58.70
67890;DHT22;54685;52.082;5.426;2023-02-14T14:07:16;17.00;58.10
67890;DHT22;54685;52.082;5.426;2023-02-14T14:17:43;17.80;55.50
67890;DHT22;54685;52.082;5.426;2023-02-14T14:22:57;17.20;57.80
67890;DHT22;54685;52.082;5.426;2023-02-14T14:25:43;16.90;58.70
67890;DHT22;54685;52.082;5.426;2023-02-14T14:28:19;16.50;61.10
67890;DHT22;54685;52.082;5.426;2023-02-14T14:30:47;16.20;66.10
67890;DHT22;54685;52.082;5.426;2023-02-14T14:33:21;16.00;76.20
67890;DHT22;54685;52.082;5.426;2023-02-14T14:36:00;15.90;76.70
67890;DHT22;54685;52.082;5.426;2023-02-14T14:38:30;15.80;76.30
67890;DHT22;54685;52.082;5.426;2023-02-14T14:40:59;15.60;82.50
67890;DHT22;54685;52.082;5.426;2023-02-14T14:43:30;15.60;82.30
67890;DHT22;54685;52.082;5.426;2023-02-14T14:45:59;15.50;81.60
67890;DHT22;54685;52.082;5.426;2023-02-14T14:48:32;15.40;90.50
67890;DHT22;54685;52.082;5.426;2023-02-14T14:51:02;15.50;88.50
67890;DHT22;54685;52.082;5.426;2023-02-14T14:53:46;16.00;89.20
67890;DHT22;54685;52.082;5.426;2023-02-14T14:56:26;16.60;73.20
67890;DHT22;54685;52.082;5.426;2023-02-14T14:59:26;17.30;65.10
67890;DHT22;54685;52.082;5.426;2023-02-14T15:01:44;18.10;62.50
67890;DHT22;54685;52.082;5.426;2023-02-14T15:04:17;18.90;62.80
67890;DHT22;54685;52.082;5.426;2023-02-14T15:06:46;19.60;58.70
67890;DHT22;54685;52.082;5.426;2023-02-14T15:09:19;20.00;57.00
67890;DHT22;54685;52.082;5.426;2023-02-14T15:11:51;20.30;54.80
67890;DHT22;54685;52.082;5.426;2023-02-14T15:14:41;19.70;53.30
67890;DHT22;54685;52.082;5.426;2023-02-14T15:17:18;18.80;54.90
67890;DHT22;54685;52.082;5.426;2023-02-14T15:20:00;18.10;55.20
67890;DHT22;54685;52.082;5.426;2023-02-14T15:24:57;16.90;57.70
67890;DHT22;54685;52.082;5.426;2023-02-14T15:27:25;16.60;62.70
67890;DHT22;54685;52.082;5.426;2023-02-14T15:30:05;16.30;68.70
67890;DHT22;54685;52.082;5.426;2023-02-14T15:32:35;16.00;64.50
67890;DHT22;54685;52.082;5.426;2023-02-14T15:35:04;15.70;69.10
67890;DHT22;54685;52.082;5.426;2023-02-14T15:37:32;15.50;75.10
67890;DHT22;54685;52.082;5.426;2023-02-14T15:40:00;15.40;76.20
67890;DHT22;54685;52.082;5.426;2023-02-14T15:42:32;15.20;81.20
67890;DHT22;54685;52.082;5.426;2023-02-14T15:45:20;15.10;79.10
67890;DHT22;54685;52.082;5.426;2023-02-14T15:47:53;14.90;85.10
67890;DHT22;54685;52.082;5.426;2023-02-14T15:50:22;14.80;90.80
67890;DHT22;54685;52.082;5.426;2023-02-14T15:52:53;14.70;91.50
67890;DHT22;54685;52.082;5.426;2023-02-14T15:55:24;14.50;92.00
67890;DHT22;54685;52.082;5.426;2023-02-14T15:58:02;14.40;92.40
67890;DHT22;54685;52.082;5.426;2023-02-14T16:00:29;14.30;93.20
67890;DHT22;54685;52.082;5.426;2023-02-14T16:03:01;14.20;95.30
67890;DHT22;54685;52.082;5.426;2023-02-14T16:05:29;14.10;95.30
67890;DHT22;54685;52.082;5.426;2023-02-14T16:08:25;14.10;94.80
67890;DHT22;54685;52.082;5.426;2023-02-14T16:11:32;13.90;95.40
67890;DHT22;54685;52.082;5.426;2023-02-14T16:14:26;13.80;93.20
67890;DHT22;54685;52.082;5.426;2023-02-14T16:17:10;13.70;96.70
67890;DHT22;54685;52.082;5.426;2023-02-14T16:19:40;13.70;95.50
67890;DHT22;54685;52.082;5.426;2023-02-14T16:22:09;13.60;98.70
67890;DHT22;54685;52.082;5.426;2023-02-14T16:24:36;13.60;99.90
67890;DHT22;54685;52.082;5.426;2023-02-14T16:27:04;13.50;99.90
67890;DHT22;54685;52.082;5.426;2023-02-14T16:29:35;13.40;99.90
67890;DHT22;54685;52.082;5.426;2023-02-14T16:32:17;13.30;99.90
67890;DHT22;54685;52.082;5.426;2023-02-14T16:34:45;13.10;99.90
67890;DHT22;54685;52.082;5.426;2023-02-14T16:37:32;12.90;99.90
67890;DHT22;54685;52.082;5.426;2023-02-14T16:40:00;12.70;99.90
67890;DHT22;54685;52.082;5.426;2023-02-14T16:42:27;12.40;99.90
67890;DHT22;54685;52.082;5.426;2023-02-14T16:44:54;12.20;99.90
67890;DHT22;54685;52.082;5.426;2023-02-14T16:47:21;12.00;99.90
67890;DHT22;54685;52.082;5.426;2023-02-14T16:49:47;11.80;99.90
67890;DHT22;54685;52.082;5.426;2023-02-14T16:52:19;11.60;99.90
67890;DHT22;54685;52.082;5.426;2023-02-14T16:54:49;11.50;99.90
67890;DHT22;54685;52.082;5.426;2023-02-14T16:57:27;11.30;99.90
67890;DHT22;54685;52.082;5.426;2023-02-14T16:59:55;11.20;99.90
67890;DHT22;54685;52.082;5.426;2023-02-14T17:02:22;11.10;99.90
67890;DHT22;54685;52.082;5.426;2023-02-14T17:04:51;11.10;99.90
67890;DHT22;54685;52.082;5.426;2023-02-14T17:07:19;10.90;99.90
67890;DHT22;54685;52.082;5.426;2023-02-14T17:09:50;10.80;99.90
67890;DHT22;54685;52.082;5.426;2023-02-14T17:12:21;10.70;99.90
67890;DHT22;54685;52.082;5.426;2023-02-14T17:14:52;10.60;99.90
67890;DHT22;54685;52.082;5.426;2023-02-14T17:17:21;10.50;99.90
67890;DHT22;54685;52.082;5.426;2023-02-14T17:19:47;10.40;99.90
67890;DHT22;54685;52.082;5.426;2023-02-14T17:22:18;10.30;99.90
67890;DHT22;54685;52.082;5.426;2023-02-14T17:24:45;10.20;99.90
67890;DHT22;54685;52.082;5.426;2023-02-14T17:27:12;10.20;99.90
67890;DHT22;54685;52.082;5.426;2023-02-14T17:29:39;10.10;99.90
67890;DHT22;54685;52.082;5.426;2023-02-14T17:32:06;10.00;99.90
67890;DHT22;54685;52.082;5.426;2023-02-14T17:34:35;9.90;99.90
67890;DHT22;54685;52.082;5.426;2023-02-14T17:37:02;9.80;99.90
67890;DHT22;54685;52.082;5.426;2023-02-14T17:39:30;9.80;99.90
67890;DHT22;54685;52.082;5.426;2023-02-14T17:41:56;9.70;99.90
67890;DHT22;54685;52.082;5.426;2023-02-14T17:44:23;9.60;99.90
67890;DHT22;54685;52.082;5.426;2023-02-14T17:46:50;9.60;99.90
67890;DHT22;54685;52.082;5.426;2023-02-14T17:49:20;9.50;99.90
67890;DHT22;54685;52.082;5.426;2023-02-14T17:51:52;9.40;99.90
67890;DHT22;54685;52.082;5.426;2023-02-14T17:54:20;9.40;99.90
67890;DHT22;54685;52.082;5.426;2023-02-14T17:56:46;9.30;99.90
67890;DHT22;54685;52.082;5.426;2023-02-14T17:59:13;9.20;99.90
67890;DHT22;54685;52.082;5.426;2023-02-14T18:01:40;9.20;99.90
67890;DHT22;54685;52.082;5.426;2023-02-14T18:04:07;9.10;99.90
67890;DHT22;54685;52.082;5.426;2023-02-14T18:06:34;9.10;99.90
67890;DHT22;54685;52.082;5.426;2023-02-14T18:09:04;9.10;99.90
67890;DHT22;54685;52.082;5.426;2023-02-14T18:11:31;9.00;99.90
67890;DHT22;54685;52.082;5.426;2023-02-14T18:13:58;9.00;99.90
67890;DHT22;54685;52.082;5.426;2023-02-14T18:16:25;8.90;99.90
67890;DHT22;54685;52.082;5.426;2023-02-14T18:18:52;8.80;99.90
67890;DHT22;54685;52.082;5.426;2023-02-14T18:21:20;8.70;99.90
67890;DHT22;54685;52.082;5.426;2023-02-14T18:23:48;8.60;99.90